createdAt,value
2018-11-03T00:01:51.506Z,36.40
2018-11-03T00:05:07.939Z,41.83
2018-11-03T00:08:12.771Z,40.13
2018-11-03T00:11:17.641Z,43.57
2018-11-03T00:14:41.350Z,41.40
2018-11-03T00:18:05.185Z,36.63
2018-11-03T00:21:21.525Z,43.93
2018-11-03T00:24:37.590Z,41.43
2018-11-03T00:27:54.281Z,48.00
2018-11-03T00:30:59.132Z,38.80
2018-11-03T00:34:22.861Z,47.23
2018-11-03T00:38:01.125Z,39.73
2018-11-03T00:41:02.355Z,47.57
2018-11-03T00:44:18.120Z,41.90
2018-11-03T00:47:34.011Z,42.97
2018-11-03T00:50:49.848Z,37.77
2018-11-03T00:53:54.823Z,40.27
2018-11-03T00:57:18.615Z,39.00
2018-11-03T01:00:42.456Z,38.73
2018-11-03T01:03:58.682Z,44.20
2018-11-03T01:07:15.180Z,38.10
2018-11-03T01:10:20.066Z,37.17
2018-11-03T01:13:24.922Z,40.93
2018-11-03T01:16:48.634Z,39.93
2018-11-03T01:20:04.356Z,39.37
2018-11-03T01:23:20.310Z,37.10
2018-11-03T01:26:36.505Z,45.37
2018-11-03T01:29:53.137Z,38.40
2018-11-03T01:33:09.512Z,34.33
2018-11-03T01:36:25.987Z,40.70
2018-11-03T01:39:41.791Z,33.20
2018-11-03T01:42:58.527Z,36.50
2018-11-03T01:46:14.420Z,32.40
2018-11-03T01:49:30.306Z,33.17
2018-11-03T01:52:46.560Z,35.73
2018-11-03T01:55:51.788Z,46.10
2018-11-03T01:59:15.522Z,34.10
2018-11-03T02:02:53.586Z,36.60
2018-11-03T02:05:55.778Z,41.47
2018-11-03T02:09:12.058Z,40.47
2018-11-03T02:12:27.818Z,40.10
2018-11-03T02:15:51.931Z,40.63
2018-11-03T02:19:29.882Z,39.00
2018-11-03T02:22:20.560Z,43.57
2018-11-03T02:25:58.384Z,42.33
2018-11-03T02:29:07.972Z,41.67
2018-11-03T02:32:26.868Z,42.60
2018-11-03T02:35:17.840Z,42.20
2018-11-03T02:38:41.558Z,48.80
2018-11-03T02:41:57.327Z,50.67
2018-11-03T02:45:13.748Z,43.33
2018-11-03T02:48:30.002Z,45.00
2018-11-03T02:51:46.622Z,46.13
2018-11-03T02:54:51.648Z,44.03
2018-11-03T02:57:56.561Z,48.30
2018-11-03T03:01:13.050Z,46.83
2018-11-03T03:04:06.515Z,43.50
2018-11-03T03:07:11.318Z,51.70
2018-11-03T03:10:35.037Z,47.27
2018-11-03T03:13:51.360Z,54.33
2018-11-03T03:17:14.786Z,44.13
2018-11-03T03:20:38.523Z,44.03
2018-11-03T03:23:54.458Z,52.77
2018-11-03T03:27:10.457Z,53.77
2018-11-03T03:30:26.283Z,46.17
2018-11-03T03:33:43.013Z,59.07
2018-11-03T03:36:54.907Z,47.77
2018-11-03T03:39:59.781Z,56.73
2018-11-03T03:43:37.586Z,52.40
2018-11-03T03:46:47.253Z,55.00
2018-11-03T03:50:06.207Z,54.93
2018-11-03T03:53:15.807Z,62.63
2018-11-03T03:56:20.643Z,63.87
2018-11-03T03:59:44.468Z,64.43
2018-11-03T04:03:08.163Z,60.40
2018-11-03T04:06:24.661Z,59.93
2018-11-03T04:09:29.582Z,66.30
2018-11-03T04:12:53.337Z,61.87
2018-11-03T04:16:09.107Z,64.43
2018-11-03T04:19:25.578Z,60.93
2018-11-03T04:22:42.055Z,62.27
2018-11-03T04:25:46.928Z,62.33
2018-11-03T04:29:10.632Z,60.03
2018-11-03T04:32:26.707Z,63.70
2018-11-03T04:35:42.357Z,62.80
2018-11-03T04:38:58.062Z,64.70
2018-11-03T04:42:13.778Z,61.17
2018-11-03T04:45:30.167Z,62.80
2018-11-03T04:48:46.347Z,64.40
2018-11-03T04:52:02.170Z,62.27
2018-11-03T04:55:18.604Z,63.97
2018-11-03T04:58:23.408Z,64.53
2018-11-03T05:01:47.191Z,68.67
2018-11-03T05:05:22.683Z,64.47
2018-11-03T05:08:15.760Z,65.40
2018-11-03T05:11:53.768Z,68.20
2018-11-03T05:14:55.977Z,68.10
2018-11-03T05:18:12.384Z,70.73
2018-11-03T05:21:28.245Z,67.67
2018-11-03T05:24:44.281Z,73.13
2018-11-03T05:27:59.938Z,78.20
2018-11-03T05:31:16.042Z,75.10
2018-11-03T05:34:31.660Z,74.60
2018-11-03T05:37:48.272Z,78.33
2018-11-03T05:41:04.250Z,74.27
2018-11-03T05:44:20.489Z,81.47
2018-11-03T05:47:25.328Z,73.73
2018-11-03T05:50:30.185Z,71.50
2018-11-03T05:53:35.030Z,68.00
2018-11-03T05:56:58.748Z,76.07
2018-11-03T06:00:14.965Z,75.53
2018-11-03T06:03:19.814Z,78.43
2018-11-03T06:06:43.599Z,76.83
2018-11-03T06:10:07.533Z,79.13
2018-11-03T06:13:23.266Z,73.70
2018-11-03T06:16:39.838Z,80.43
2018-11-03T06:19:56.581Z,73.27
2018-11-03T06:23:20.408Z,76.73
2018-11-03T06:26:25.187Z,75.73
2018-11-03T06:29:41.067Z,69.20
2018-11-03T06:32:57.607Z,67.10
2018-11-03T06:36:14.051Z,82.23
2018-11-03T06:42:41.936Z,74.17
2018-11-03T06:45:57.778Z,74.87
2018-11-03T06:49:20.298Z,71.40
2018-11-03T06:52:36.183Z,77.17
2018-11-03T06:55:51.958Z,76.27
2018-11-03T06:59:07.768Z,70.60
2018-11-03T07:02:24.264Z,78.30
2018-11-03T07:05:40.460Z,79.40
2018-11-03T07:08:56.875Z,80.77
2018-11-03T07:12:13.057Z,73.10
2018-11-03T07:15:28.839Z,70.03
2018-11-03T07:18:44.697Z,71.07
2018-11-03T07:22:01.420Z,67.00
2018-11-03T07:25:17.879Z,69.87
2018-11-03T07:28:22.785Z,69.87
2018-11-03T07:31:27.614Z,63.33
2018-11-03T07:34:51.401Z,61.20
2018-11-03T07:38:15.186Z,61.30
2018-11-03T07:41:31.837Z,68.37
2018-11-03T07:44:36.629Z,56.13
2018-11-03T07:47:41.550Z,57.03
2018-11-03T07:50:46.389Z,55.80
2018-11-03T07:54:10.211Z,58.57
2018-11-03T07:57:15.035Z,49.80
2018-11-03T08:00:38.827Z,48.20
2018-11-03T08:04:02.242Z,53.40
2018-11-03T08:07:25.950Z,49.73
2018-11-03T08:10:42.339Z,52.60
2018-11-03T08:14:01.395Z,54.27
2018-11-03T08:23:44.740Z,52.50
2018-11-03T08:27:00.480Z,58.30
2018-11-03T08:30:16.274Z,47.20
2018-11-03T08:33:32.072Z,50.13
2018-11-03T08:36:48.576Z,49.27
2018-11-03T08:40:04.559Z,52.27
2018-11-03T08:43:20.537Z,46.40
2018-11-03T08:46:37.110Z,46.53
2018-11-03T08:49:52.978Z,50.50
2018-11-03T08:53:09.666Z,44.37
2018-11-03T08:56:25.930Z,49.20
2018-11-03T08:59:42.075Z,49.40
2018-11-03T09:02:57.757Z,46.70
2018-11-03T09:06:14.376Z,47.20
2018-11-03T09:09:30.327Z,42.97
2018-11-03T09:12:46.152Z,44.53
2018-11-03T09:16:02.680Z,47.33
2018-11-03T09:19:18.367Z,36.13
2018-11-03T09:22:35.407Z,37.80
2018-11-03T09:25:52.012Z,43.93
2018-11-03T09:29:08.404Z,44.63
2018-11-03T09:32:24.648Z,47.17
2018-11-03T09:35:40.565Z,46.47
2018-11-03T09:38:57.088Z,44.07
2018-11-03T09:42:19.235Z,44.63
2018-11-03T09:45:39.965Z,47.40
2018-11-03T09:48:41.910Z,46.43
2018-11-03T09:51:47.040Z,44.70
2018-11-03T09:54:51.956Z,49.80
2018-11-03T09:57:56.814Z,45.20
2018-11-03T10:04:39.531Z,43.73
2018-11-03T10:07:41.160Z,43.83
2018-11-03T10:10:57.033Z,45.30
2018-11-03T10:14:12.874Z,44.83
2018-11-03T10:17:28.637Z,56.43
2018-11-03T10:20:45.229Z,46.37
2018-11-03T10:24:01.584Z,43.87
2018-11-03T10:27:06.473Z,48.30
2018-11-03T10:30:12.529Z,48.23
2018-11-03T10:33:36.376Z,45.30
2018-11-03T10:37:11.947Z,43.60
2018-11-03T10:40:17.833Z,43.17
2018-11-03T10:43:34.337Z,48.70
2018-11-03T10:46:51.083Z,44.03
2018-11-03T10:50:06.811Z,44.60
2018-11-03T10:53:23.020Z,47.00
2018-11-03T10:56:38.776Z,42.67
2018-11-03T10:59:43.674Z,40.40
2018-11-03T11:03:26.026Z,44.83
2018-11-03T11:07:08.353Z,44.33
2018-11-03T11:10:43.363Z,46.00
2018-11-03T11:13:59.430Z,41.27
2018-11-03T11:17:15.374Z,39.10
2018-11-03T11:20:31.247Z,44.33
2018-11-03T11:23:47.024Z,47.00
2018-11-03T11:27:02.752Z,47.17
2018-11-03T11:30:19.312Z,43.40
2018-11-03T11:33:35.333Z,48.70
2018-11-03T11:36:51.439Z,43.23
2018-11-03T11:40:07.567Z,39.87
2018-11-03T11:43:23.783Z,43.67
2018-11-03T11:46:39.626Z,37.80
2018-11-03T11:49:55.587Z,34.63
2018-11-03T11:53:11.336Z,35.10
2018-11-03T11:56:27.582Z,32.70
2018-11-03T11:59:43.853Z,32.33
2018-11-03T12:03:00.097Z,34.63
2018-11-03T12:06:15.612Z,25.77
2018-11-03T12:09:31.648Z,28.80
2018-11-03T12:12:47.363Z,25.90
2018-11-03T12:16:03.174Z,17.83
2018-11-03T12:19:19.832Z,20.33
2018-11-03T12:22:25.174Z,18.80
2018-11-03T12:25:49.042Z,21.83
2018-11-03T12:29:12.601Z,14.70
2018-11-03T12:32:28.923Z,19.63
2018-11-03T12:35:45.369Z,14.33
2018-11-03T12:39:01.577Z,17.77
2018-11-03T12:42:06.784Z,18.27
2018-11-03T12:45:30.484Z,16.80
2018-11-03T12:48:46.637Z,15.17
2018-11-03T12:52:02.860Z,13.07
2018-11-03T12:55:18.670Z,11.30
2018-11-03T12:58:34.654Z,17.93
2018-11-03T13:01:50.586Z,9.30
2018-11-03T13:05:06.285Z,10.80
2018-11-03T13:08:11.149Z,12.47
2018-11-03T13:11:16.198Z,12.17
2018-11-03T13:14:21.022Z,13.33
2018-11-03T13:17:44.705Z,12.27
2018-11-03T13:21:08.421Z,18.23
2018-11-03T13:24:24.947Z,19.90
2018-11-03T13:27:44.050Z,15.83
2018-11-03T13:30:34.744Z,16.27
2018-11-03T13:34:09.826Z,15.90
2018-11-03T13:37:14.672Z,14.27
2018-11-03T13:40:31.143Z,18.43
2018-11-03T13:43:46.930Z,18.20
2018-11-03T13:47:02.764Z,19.77
2018-11-03T13:50:26.702Z,18.07
2018-11-03T13:53:50.411Z,23.20
2018-11-03T13:57:06.874Z,17.53
2018-11-03T14:00:22.840Z,18.43
2018-11-03T14:03:39.553Z,18.00
2018-11-03T14:06:56.211Z,21.63
2018-11-03T14:10:14.532Z,17.53
2018-11-03T14:13:30.877Z,20.43
2018-11-03T14:16:47.515Z,15.30
2018-11-03T14:20:03.368Z,21.30
2018-11-03T14:23:20.068Z,18.90
2018-11-03T14:26:36.241Z,15.60
2018-11-03T14:29:52.580Z,19.60
2018-11-03T14:33:10.635Z,20.27
2018-11-03T14:36:27.072Z,17.70
2018-11-03T14:39:42.663Z,14.73
2018-11-03T14:42:59.364Z,14.90
2018-11-03T14:46:16.078Z,15.50
2018-11-03T14:49:31.805Z,16.77
2018-11-03T14:52:47.834Z,17.53
2018-11-03T14:55:53.612Z,15.47
2018-11-03T14:59:10.400Z,13.80
2018-11-03T15:02:14.681Z,15.27
2018-11-03T15:05:30.570Z,14.90
2018-11-03T15:08:54.162Z,16.03
2018-11-03T15:12:17.885Z,16.87
2018-11-03T15:15:34.203Z,16.00
2018-11-03T15:18:50.898Z,13.63
2018-11-03T15:22:07.259Z,18.70
2018-11-03T15:25:23.318Z,16.50
2018-11-03T15:28:39.680Z,16.83
2018-11-03T15:31:55.655Z,13.80
2018-11-03T15:35:00.803Z,13.97
2018-11-03T15:38:24.486Z,15.10
2018-11-03T15:41:48.325Z,14.30
2018-11-03T15:45:30.626Z,20.20
2018-11-03T15:48:47.466Z,15.10
2018-11-03T15:51:59.386Z,15.93
2018-11-03T15:55:23.119Z,12.70
2018-11-03T15:58:39.645Z,15.70
2018-11-03T16:01:55.401Z,12.77
2018-11-03T16:05:12.345Z,13.90
2018-11-03T16:08:28.733Z,14.17
2018-11-03T16:11:45.281Z,14.37
2018-11-03T16:15:01.262Z,13.67
2018-11-03T16:18:06.226Z,16.27
2018-11-03T16:21:42.030Z,11.10
2018-11-03T16:24:45.913Z,13.50
2018-11-03T16:28:01.713Z,16.87
2018-11-03T16:31:17.390Z,19.10
2018-11-03T16:34:33.166Z,11.57
2018-11-03T16:37:49.276Z,16.30
2018-11-03T16:41:05.335Z,13.20
2018-11-03T16:44:21.250Z,16.33
2018-11-03T16:47:26.143Z,15.93
2018-11-03T16:50:30.896Z,12.37
2018-11-03T16:53:54.801Z,11.47
2018-11-03T16:57:18.573Z,18.73
2018-11-03T17:00:23.451Z,11.97
2018-11-03T17:04:01.512Z,11.60
2018-11-03T17:07:04.496Z,12.93
2018-11-03T17:10:11.827Z,12.43
2018-11-03T17:13:16.686Z,10.47
2018-11-03T17:16:40.751Z,11.33
2018-11-03T17:19:57.224Z,14.63
2018-11-03T17:23:13.375Z,13.23
2018-11-03T17:26:29.908Z,13.60
2018-11-03T17:29:46.354Z,9.70
2018-11-03T17:33:02.201Z,11.00
2018-11-03T17:36:18.461Z,13.40
2018-11-03T17:39:34.483Z,11.53
2018-11-03T17:42:39.673Z,13.40
2018-11-03T17:46:03.632Z,10.77
2018-11-03T17:49:27.434Z,12.67
2018-11-03T17:52:43.393Z,14.83
2018-11-03T17:56:00.008Z,12.60
2018-11-03T17:59:15.842Z,11.73
2018-11-03T18:02:32.022Z,10.93
2018-11-03T18:05:48.692Z,11.37
2018-11-03T18:09:05.697Z,13.83
2018-11-03T18:12:21.642Z,9.93
2018-11-03T18:15:37.337Z,10.03
2018-11-03T18:18:53.171Z,11.07
2018-11-03T18:22:09.792Z,11.27
2018-11-03T18:25:25.650Z,11.60
2018-11-03T18:28:42.097Z,11.13
2018-11-03T18:31:57.801Z,12.40
2018-11-03T18:35:13.485Z,13.00
2018-11-03T18:38:29.803Z,17.80
2018-11-03T18:41:46.647Z,13.63
2018-11-03T18:45:02.668Z,12.43
2018-11-03T18:48:18.359Z,14.10
2018-11-03T18:51:34.258Z,12.40
2018-11-03T18:54:50.900Z,14.70
2018-11-03T18:58:06.855Z,17.13
2018-11-03T19:01:22.665Z,16.30
2018-11-03T19:04:39.249Z,16.33
2018-11-03T19:07:55.308Z,14.70
2018-11-03T19:11:11.448Z,14.80
2018-11-03T19:14:27.911Z,12.60
2018-11-03T19:17:43.766Z,15.80
2018-11-03T19:20:59.854Z,22.10
2018-11-03T19:24:15.841Z,20.90
2018-11-03T19:27:31.841Z,20.90
2018-11-03T19:30:48.255Z,22.03
2018-11-03T19:34:04.152Z,25.93
2018-11-03T19:37:09.092Z,20.23
2018-11-03T19:40:44.594Z,27.10
2018-11-03T19:43:49.149Z,23.40
2018-11-03T19:47:05.709Z,23.33
2018-11-03T19:50:21.431Z,21.30
2018-11-03T19:53:37.745Z,18.17
2018-11-03T19:56:54.198Z,22.57
2018-11-03T20:00:10.084Z,21.70
2018-11-03T20:03:25.987Z,24.63
2018-11-03T20:06:42.436Z,29.90
2018-11-03T20:09:58.903Z,27.67
2018-11-03T20:13:15.443Z,24.47
2018-11-03T20:16:31.825Z,20.70
2018-11-03T20:19:47.777Z,16.53
2018-11-03T20:23:03.548Z,21.93
2018-11-03T20:26:19.527Z,24.60
2018-11-03T20:29:35.224Z,25.77
2018-11-03T20:32:50.977Z,26.47
2018-11-03T20:36:06.744Z,22.33
2018-11-03T20:39:22.402Z,24.10
2018-11-03T20:42:38.300Z,26.80
2018-11-03T20:45:55.046Z,21.30
2018-11-03T20:49:10.719Z,25.73
2018-11-03T20:52:27.430Z,26.03
2018-11-03T20:55:44.031Z,26.40
2018-11-03T20:59:00.081Z,26.87
2018-11-03T21:02:16.157Z,22.87
2018-11-03T21:05:32.169Z,23.40
2018-11-03T21:08:48.141Z,23.53
2018-11-03T21:12:04.005Z,23.60
2018-11-03T21:15:19.682Z,29.43
2018-11-03T21:18:35.373Z,20.20
2018-11-03T21:21:51.199Z,25.03
2018-11-03T21:25:07.906Z,24.00
2018-11-03T21:28:23.694Z,23.53
2018-11-03T21:31:39.657Z,28.20
2018-11-03T21:34:55.614Z,28.73
2018-11-03T21:38:14.915Z,41.20
2018-11-03T21:41:31.313Z,32.87
2018-11-03T21:44:47.014Z,26.80
2018-11-03T21:48:03.432Z,24.63
2018-11-03T21:51:19.315Z,27.03
2018-11-03T21:54:35.606Z,23.90
2018-11-03T21:57:52.283Z,32.53
2018-11-03T22:01:08.915Z,36.57
2018-11-03T22:04:24.814Z,28.03
2018-11-03T22:07:41.155Z,30.93
2018-11-03T22:10:57.603Z,27.90
2018-11-03T22:14:14.137Z,29.63
2018-11-03T22:17:30.106Z,31.17
2018-11-03T22:20:45.994Z,27.33
2018-11-03T22:24:04.824Z,31.27
2018-11-03T22:27:24.149Z,31.93
2018-11-03T22:30:40.209Z,23.80
2018-11-03T22:33:56.939Z,31.60
2018-11-03T22:37:01.990Z,27.73
2018-11-03T22:40:37.578Z,25.43
2018-11-03T22:43:49.670Z,30.00
2018-11-03T22:47:05.404Z,29.73
2018-11-03T22:50:22.137Z,33.67
2018-11-03T22:53:37.884Z,32.27
2018-11-03T22:56:54.465Z,28.53
2018-11-03T23:00:14.495Z,33.37
2018-11-03T23:03:19.426Z,27.70
2018-11-03T23:06:43.179Z,40.53
2018-11-03T23:10:20.871Z,31.97
2018-11-03T23:13:23.700Z,31.13
2018-11-03T23:16:39.518Z,35.77
2018-11-03T23:19:55.261Z,35.93
2018-11-03T23:23:11.687Z,34.40
2018-11-03T23:26:16.537Z,37.20
2018-11-03T23:29:40.290Z,37.90
2018-11-03T23:33:04.020Z,35.90
2018-11-03T23:36:20.456Z,34.73
2018-11-03T23:39:36.417Z,47.27
2018-11-03T23:42:52.249Z,44.60
2018-11-03T23:46:08.110Z,42.30
2018-11-03T23:49:24.445Z,48.87
2018-11-03T23:52:47.247Z,54.60
2018-11-03T23:56:03.892Z,45.63
2018-11-03T23:59:20.460Z,48.47
